sensor_id;sensor_type;location;lat;lon;timestamp;temperature;humidity
14411;DHT22;7290;50.854;4.354;2023-05-24T00:02:04;12.30;99.90
14411;DHT22;7290;50.854;4.354;2023-05-24T00:04:31;12.30;99.90
14411;DHT22;7290;50.854;4.354;2023-05-24T00:06:58;12.20;99.90
14411;DHT22;7290;50.854;4.354;2023-05-24T00:09:28;12.30;99.90
14411;DHT22;7290;50.854;4.354;2023-05-24T00:11:54;12.30;99.90
14411;DHT22;7290;50.854;4.354;2023-05-24T00:14:20;12.30;99.90
14411;DHT22;7290;50.854;4.354;2023-05-24T00:16:47;12.40;99.90
14411;DHT22;7290;50.854;4.354;2023-05-24T00:19:13;12.30;99.90
14411;DHT22;7290;50.854;4.354;2023-05-24T00:21:42;12.30;99.90
14411;DHT22;7290;50.854;4.354;2023-05-24T00:24:09;12.20;99.90
14411;DHT22;7290;50.854;4.354;2023-05-24T00:26:35;12.30;99.90
14411;DHT22;7290;50.854;4.354;2023-05-24T00:29:02;12.20;99.90
14411;DHT22;7290;50.854;4.354;2023-05-24T00:31:28;12.20;99.90
14411;DHT22;7290;50.854;4.354;2023-05-24T00:33:54;12.20;99.90
14411;DHT22;7290;50.854;4.354;2023-05-24T00:36:20;12.30;99.90
14411;DHT22;7290;50.854;4.354;2023-05-24T00:38:46;12.30;99.90
14411;DHT22;7290;50.854;4.354;2023-05-24T00:41:13;12.30;99.90
14411;DHT22;7290;50.854;4.354;2023-05-24T00:43:40;12.20;99.90
14411;DHT22;7290;50.854;4.354;2023-05-24T00:46:18;12.10;99.90
14411;DHT22;7290;50.854;4.354;2023-05-24T00:48:47;12.20;99.90
14411;DHT22;7290;50.854;4.354;2023-05-24T00:51:14;12.10;99.90
14411;DHT22;7290;50.854;4.354;2023-05-24T00:53:41;12.10;99.90
14411;DHT22;7290;50.854;4.354;2023-05-24T00:56:08;11.90;99.90
14411;DHT22;7290;50.854;4.354;2023-05-24T00:58:35;11.90;99.90
14411;DHT22;7290;50.854;4.354;2023-05-24T01:01:02;11.80;99.90
14411;DHT22;7290;50.854;4.354;2023-05-24T01:03:29;11.90;99.90
14411;DHT22;7290;50.854;4.354;2023-05-24T01:05:55;12.00;99.90
14411;DHT22;7290;50.854;4.354;2023-05-24T01:08:39;11.90;99.90
14411;DHT22;7290;50.854;4.354;2023-05-24T01:11:12;11.80;99.90
14411;DHT22;7290;50.854;4.354;2023-05-24T01:13:57;11.80;99.90
14411;DHT22;7290;50.854;4.354;2023-05-24T01:16:26;11.90;99.90
14411;DHT22;7290;50.854;4.354;2023-05-24T01:19:01;11.70;99.90
14411;DHT22;7290;50.854;4.354;2023-05-24T01:21:40;11.60;99.90
14411;DHT22;7290;50.854;4.354;2023-05-24T01:24:21;11.70;99.90
14411;DHT22;7290;50.854;4.354;2023-05-24T01:27:04;11.70;99.90
14411;DHT22;7290;50.854;4.354;2023-05-24T01:29:31;11.50;99.90
14411;DHT22;7290;50.854;4.354;2023-05-24T01:31:58;11.60;99.90
14411;DHT22;7290;50.854;4.354;2023-05-24T01:34:25;11.60;99.90
14411;DHT22;7290;50.854;4.354;2023-05-24T01:36:51;11.60;99.90
14411;DHT22;7290;50.854;4.354;2023-05-24T01:39:17;11.50;99.90
14411;DHT22;7290;50.854;4.354;2023-05-24T01:41:53;11.50;99.90
14411;DHT22;7290;50.854;4.354;2023-05-24T01:44:28;11.50;99.90
14411;DHT22;7290;50.854;4.354;2023-05-24T01:47:01;11.50;99.90
14411;DHT22;7290;50.854;4.354;2023-05-24T01:49:35;11.50;99.90
14411;DHT22;7290;50.854;4.354;2023-05-24T01:52:05;11.40;99.90
14411;DHT22;7290;50.854;4.354;2023-05-24T01:54:37;11.40;99.90
14411;DHT22;7290;50.854;4.354;2023-05-24T01:57:06;11.50;99.90
14411;DHT22;7290;50.854;4.354;2023-05-24T01:59:34;11.50;99.90
14411;DHT22;7290;50.854;4.354;2023-05-24T02:02:01;11.50;99.90
14411;DHT22;7290;50.854;4.354;2023-05-24T02:04:27;11.40;99.90
14411;DHT22;7290;50.854;4.354;2023-05-24T02:06:54;11.40;99.90
14411;DHT22;7290;50.854;4.354;2023-05-24T02:09:20;11.50;99.90
14411;DHT22;7290;50.854;4.354;2023-05-24T02:11:46;11.60;99.90
14411;DHT22;7290;50.854;4.354;2023-05-24T02:14:12;11.60;99.90
14411;DHT22;7290;50.854;4.354;2023-05-24T02:16:38;11.60;99.90
14411;DHT22;7290;50.854;4.354;2023-05-24T02:19:06;11.50;99.90
14411;DHT22;7290;50.854;4.354;2023-05-24T02:21:33;11.50;99.90
14411;DHT22;7290;50.854;4.354;2023-05-24T02:23:59;11.50;99.90
14411;DHT22;7290;50.854;4.354;2023-05-24T02:26:25;11.60;99.90
14411;DHT22;7290;50.854;4.354;2023-05-24T02:28:51;11.50;99.90
14411;DHT22;7290;50.854;4.354;2023-05-24T02:31:17;11.50;99.90
14411;DHT22;7290;50.854;4.354;2023-05-24T02:33:44;11.50;99.90
14411;DHT22;7290;50.854;4.354;2023-05-24T02:36:10;11.40;99.90
14411;DHT22;7290;50.854;4.354;2023-05-24T02:38:36;11.50;99.90
14411;DHT22;7290;50.854;4.354;2023-05-24T02:41:02;11.50;99.90
14411;DHT22;7290;50.854;4.354;2023-05-24T02:43:28;11.40;99.90
14411;DHT22;7290;50.854;4.354;2023-05-24T02:45:54;11.40;99.90
14411;DHT22;7290;50.854;4.354;2023-05-24T02:48:20;11.50;99.90
14411;DHT22;7290;50.854;4.354;2023-05-24T02:50:47;11.40;99.90
14411;DHT22;7290;50.854;4.354;2023-05-24T02:53:13;11.40;99.90
14411;DHT22;7290;50.854;4.354;2023-05-24T02:55:40;11.40;99.90
14411;DHT22;7290;50.854;4.354;2023-05-24T02:58:08;11.50;99.90
14411;DHT22;7290;50.854;4.354;2023-05-24T03:00:34;11.50;99.90
14411;DHT22;7290;50.854;4.354;2023-05-24T03:03:01;11.40;99.90
14411;DHT22;7290;50.854;4.354;2023-05-24T03:05:27;11.40;99.90
14411;DHT22;7290;50.854;4.354;2023-05-24T03:07:54;11.40;99.90
14411;DHT22;7290;50.854;4.354;2023-05-24T03:10:21;11.40;99.90
14411;DHT22;7290;50.854;4.354;2023-05-24T03:12:47;11.30;99.90
14411;DHT22;7290;50.854;4.354;2023-05-24T03:15:13;11.40;99.90
14411;DHT22;7290;50.854;4.354;2023-05-24T03:17:39;11.40;99.90
14411;DHT22;7290;50.854;4.354;2023-05-24T03:20:06;11.40;99.90
14411;DHT22;7290;50.854;4.354;2023-05-24T03:22:33;11.40;99.90
14411;DHT22;7290;50.854;4.354;2023-05-24T03:24:59;11.40;99.90
14411;DHT22;7290;50.854;4.354;2023-05-24T03:27:25;11.40;99.90
14411;DHT22;7290;50.854;4.354;2023-05-24T03:29:52;11.30;99.90
14411;DHT22;7290;50.854;4.354;2023-05-24T03:32:18;11.30;99.90
14411;DHT22;7290;50.854;4.354;2023-05-24T03:34:44;11.30;99.90
14411;DHT22;7290;50.854;4.354;2023-05-24T03:37:10;11.30;99.90
14411;DHT22;7290;50.854;4.354;2023-05-24T03:39:36;11.30;99.90
14411;DHT22;7290;50.854;4.354;2023-05-24T03:42:03;11.30;99.90
14411;DHT22;7290;50.854;4.354;2023-05-24T03:44:29;11.30;99.90
14411;DHT22;7290;50.854;4.354;2023-05-24T03:46:55;11.30;99.90
14411;DHT22;7290;50.854;4.354;2023-05-24T03:49:21;11.20;99.90
14411;DHT22;7290;50.854;4.354;2023-05-24T03:51:48;11.40;99.90
14411;DHT22;7290;50.854;4.354;2023-05-24T03:54:14;11.40;99.90
14411;DHT22;7290;50.854;4.354;2023-05-24T03:56:42;11.30;99.90
14411;DHT22;7290;50.854;4.354;2023-05-24T03:59:09;11.30;99.90
14411;DHT22;7290;50.854;4.354;2023-05-24T04:01:35;11.30;99.90
14411;DHT22;7290;50.854;4.354;2023-05-24T04:04:01;11.20;99.90
14411;DHT22;7290;50.854;4.354;2023-05-24T04:06:28;11.40;99.90
14411;DHT22;7290;50.854;4.354;2023-05-24T04:08:54;11.30;99.90
14411;DHT22;7290;50.854;4.354;2023-05-24T04:11:21;11.40;99.90
14411;DHT22;7290;50.854;4.354;2023-05-24T04:13:48;11.50;99.90
14411;DHT22;7290;50.854;4.354;2023-05-24T04:16:16;11.50;99.90
14411;DHT22;7290;50.854;4.354;2023-05-24T04:18:42;11.50;99.90
14411;DHT22;7290;50.854;4.354;2023-05-24T04:21:09;11.40;99.90
14411;DHT22;7290;50.854;4.354;2023-05-24T04:23:35;11.50;99.90
14411;DHT22;7290;50.854;4.354;2023-05-24T04:26:01;11.40;99.90
14411;DHT22;7290;50.854;4.354;2023-05-24T04:28:28;11.40;99.90
14411;DHT22;7290;50.854;4.354;2023-05-24T04:30:54;11.60;99.90
14411;DHT22;7290;50.854;4.354;2023-05-24T04:33:22;11.60;99.90
14411;DHT22;7290;50.854;4.354;2023-05-24T04:35:48;11.70;99.90
14411;DHT22;7290;50.854;4.354;2023-05-24T04:38:15;11.60;99.90
14411;DHT22;7290;50.854;4.354;2023-05-24T04:40:41;11.60;99.90
14411;DHT22;7290;50.854;4.354;2023-05-24T04:43:07;11.60;99.90
14411;DHT22;7290;50.854;4.354;2023-05-24T04:45:35;11.40;99.90
14411;DHT22;7290;50.854;4.354;2023-05-24T04:48:01;11.50;99.90
14411;DHT22;7290;50.854;4.354;2023-05-24T04:50:28;11.50;99.90
14411;DHT22;7290;50.854;4.354;2023-05-24T04:52:54;11.20;99.90
14411;DHT22;7290;50.854;4.354;2023-05-24T04:55:20;11.20;99.90
14411;DHT22;7290;50.854;4.354;2023-05-24T04:57:46;11.40;99.90
14411;DHT22;7290;50.854;4.354;2023-05-24T05:00:13;11.60;99.90
14411;DHT22;7290;50.854;4.354;2023-05-24T05:02:39;11.70;99.90
14411;DHT22;7290;50.854;4.354;2023-05-24T05:05:06;11.70;99.90
14411;DHT22;7290;50.854;4.354;2023-05-24T05:07:33;11.80;99.90
14411;DHT22;7290;50.854;4.354;2023-05-24T05:09:59;11.80;99.90
14411;DHT22;7290;50.854;4.354;2023-05-24T05:12:25;11.70;99.90
14411;DHT22;7290;50.854;4.354;2023-05-24T05:14:51;12.00;99.90
14411;DHT22;7290;50.854;4.354;2023-05-24T05:17:17;12.40;99.90
14411;DHT22;7290;50.854;4.354;2023-05-24T05:19:43;12.50;99.90
14411;DHT22;7290;50.854;4.354;2023-05-24T05:22:10;12.40;99.90
14411;DHT22;7290;50.854;4.354;2023-05-24T05:24:36;12.40;99.90
14411;DHT22;7290;50.854;4.354;2023-05-24T05:27:03;13.00;99.90
14411;DHT22;7290;50.854;4.354;2023-05-24T05:29:29;14.40;99.90
14411;DHT22;7290;50.854;4.354;2023-05-24T05:31:55;15.80;99.90
14411;DHT22;7290;50.854;4.354;2023-05-24T05:34:21;17.40;99.90
14411;DHT22;7290;50.854;4.354;2023-05-24T05:36:47;17.90;99.90
14411;DHT22;7290;50.854;4.354;2023-05-24T05:39:13;18.50;99.90
14411;DHT22;7290;50.854;4.354;2023-05-24T05:41:41;19.10;99.90
14411;DHT22;7290;50.854;4.354;2023-05-24T05:44:08;19.70;99.90
14411;DHT22;7290;50.854;4.354;2023-05-24T05:46:35;19.70;99.90
14411;DHT22;7290;50.854;4.354;2023-05-24T05:49:01;19.30;99.90
14411;DHT22;7290;50.854;4.354;2023-05-24T05:51:27;19.50;99.90
14411;DHT22;7290;50.854;4.354;2023-05-24T05:53:53;20.40;99.90
14411;DHT22;7290;50.854;4.354;2023-05-24T05:56:19;21.20;99.90
14411;DHT22;7290;50.854;4.354;2023-05-24T05:58:46;21.20;99.90
14411;DHT22;7290;50.854;4.354;2023-05-24T06:01:14;22.10;99.40
14411;DHT22;7290;50.854;4.354;2023-05-24T06:03:42;22.10;98.80
14411;DHT22;7290;50.854;4.354;2023-05-24T06:06:08;21.70;98.90
14411;DHT22;7290;50.854;4.354;2023-05-24T06:08:34;22.10;98.40
14411;DHT22;7290;50.854;4.354;2023-05-24T06:11:01;21.40;99.00
14411;DHT22;7290;50.854;4.354;2023-05-24T06:13:27;21.50;99.20
14411;DHT22;7290;50.854;4.354;2023-05-24T06:15:54;22.30;98.20
14411;DHT22;7290;50.854;4.354;2023-05-24T06:18:23;22.00;98.20
14411;DHT22;7290;50.854;4.354;2023-05-24T06:20:52;21.70;98.20
14411;DHT22;7290;50.854;4.354;2023-05-24T06:23:18;22.30;97.90
14411;DHT22;7290;50.854;4.354;2023-05-24T06:25:45;23.50;96.10
14411;DHT22;7290;50.854;4.354;2023-05-24T06:28:11;23.30;95.90
14411;DHT22;7290;50.854;4.354;2023-05-24T06:30:37;22.60;96.90
14411;DHT22;7290;50.854;4.354;2023-05-24T06:33:04;22.50;96.80
14411;DHT22;7290;50.854;4.354;2023-05-24T06:35:33;23.70;95.40
14411;DHT22;7290;50.854;4.354;2023-05-24T06:37:59;23.70;95.20
14411;DHT22;7290;50.854;4.354;2023-05-24T06:40:28;23.60;95.30
14411;DHT22;7290;50.854;4.354;2023-05-24T06:42:55;24.30;94.60
14411;DHT22;7290;50.854;4.354;2023-05-24T06:45:23;24.80;93.50
14411;DHT22;7290;50.854;4.354;2023-05-24T06:47:49;24.20;93.80
14411;DHT22;7290;50.854;4.354;2023-05-24T06:50:19;24.60;93.10
14411;DHT22;7290;50.854;4.354;2023-05-24T06:52:45;24.70;92.30
14411;DHT22;7290;50.854;4.354;2023-05-24T06:55:11;24.60;92.60
14411;DHT22;7290;50.854;4.354;2023-05-24T06:57:40;24.00;92.80
14411;DHT22;7290;50.854;4.354;2023-05-24T07:00:08;24.10;93.00
14411;DHT22;7290;50.854;4.354;2023-05-24T07:02:37;24.70;92.30
14411;DHT22;7290;50.854;4.354;2023-05-24T07:05:04;25.20;91.80
14411;DHT22;7290;50.854;4.354;2023-05-24T07:07:31;26.20;90.80
14411;DHT22;7290;50.854;4.354;2023-05-24T07:09:58;26.80;89.50
14411;DHT22;7290;50.854;4.354;2023-05-24T07:12:24;25.30;90.80
14411;DHT22;7290;50.854;4.354;2023-05-24T07:14:50;24.00;92.00
14411;DHT22;7290;50.854;4.354;2023-05-24T07:17:16;24.10;91.80
14411;DHT22;7290;50.854;4.354;2023-05-24T07:19:43;23.60;92.30
14411;DHT22;7290;50.854;4.354;2023-05-24T07:22:09;22.20;94.00
14411;DHT22;7290;50.854;4.354;2023-05-24T07:24:36;21.40;95.30
14411;DHT22;7290;50.854;4.354;2023-05-24T07:27:03;20.00;97.00
14411;DHT22;7290;50.854;4.354;2023-05-24T07:29:29;19.30;98.50
14411;DHT22;7290;50.854;4.354;2023-05-24T07:31:57;18.80;99.10
14411;DHT22;7290;50.854;4.354;2023-05-24T07:34:23;18.10;99.90
14411;DHT22;7290;50.854;4.354;2023-05-24T07:36:54;17.60;99.90
14411;DHT22;7290;50.854;4.354;2023-05-24T07:39:20;17.90;99.90
14411;DHT22;7290;50.854;4.354;2023-05-24T07:41:46;18.40;99.90
14411;DHT22;7290;50.854;4.354;2023-05-24T07:44:13;18.80;99.90
14411;DHT22;7290;50.854;4.354;2023-05-24T07:46:39;18.10;99.90
14411;DHT22;7290;50.854;4.354;2023-05-24T07:49:05;17.90;99.90
14411;DHT22;7290;50.854;4.354;2023-05-24T07:51:31;17.80;99.90
14411;DHT22;7290;50.854;4.354;2023-05-24T07:53:58;18.00;99.90
14411;DHT22;7290;50.854;4.354;2023-05-24T07:56:24;18.30;99.90
14411;DHT22;7290;50.854;4.354;2023-05-24T07:58:51;18.10;99.90
14411;DHT22;7290;50.854;4.354;2023-05-24T08:01:21;18.30;99.90
14411;DHT22;7290;50.854;4.354;2023-05-24T08:03:48;18.60;99.90
14411;DHT22;7290;50.854;4.354;2023-05-24T08:06:14;19.30;99.90
14411;DHT22;7290;50.854;4.354;2023-05-24T08:08:41;19.60;99.90
14411;DHT22;7290;50.854;4.354;2023-05-24T08:11:07;20.00;99.90
14411;DHT22;7290;50.854;4.354;2023-05-24T08:13:34;20.00;99.80
14411;DHT22;7290;50.854;4.354;2023-05-24T08:16:00;20.80;98.60
14411;DHT22;7290;50.854;4.354;2023-05-24T08:18:27;21.80;96.90
14411;DHT22;7290;50.854;4.354;2023-05-24T08:20:53;23.40;95.80
14411;DHT22;7290;50.854;4.354;2023-05-24T08:23:19;23.80;92.70
14411;DHT22;7290;50.854;4.354;2023-05-24T08:25:46;24.30;91.80
14411;DHT22;7290;50.854;4.354;2023-05-24T08:28:12;24.10;91.50
14411;DHT22;7290;50.854;4.354;2023-05-24T08:30:38;23.20;92.80
14411;DHT22;7290;50.854;4.354;2023-05-24T08:33:05;23.70;92.90
14411;DHT22;7290;50.854;4.354;2023-05-24T08:35:31;23.50;93.00
14411;DHT22;7290;50.854;4.354;2023-05-24T08:37:57;23.10;93.30
14411;DHT22;7290;50.854;4.354;2023-05-24T08:40:24;23.00;93.00
14411;DHT22;7290;50.854;4.354;2023-05-24T08:42:51;22.40;94.10
14411;DHT22;7290;50.854;4.354;2023-05-24T08:45:18;21.90;95.00
14411;DHT22;7290;50.854;4.354;2023-05-24T08:47:46;21.70;95.60
14411;DHT22;7290;50.854;4.354;2023-05-24T08:50:14;21.70;95.80
14411;DHT22;7290;50.854;4.354;2023-05-24T08:52:41;21.90;95.40
14411;DHT22;7290;50.854;4.354;2023-05-24T08:55:08;22.00;95.50
14411;DHT22;7290;50.854;4.354;2023-05-24T08:57:35;21.70;95.60
14411;DHT22;7290;50.854;4.354;2023-05-24T09:00:05;22.50;95.10
14411;DHT22;7290;50.854;4.354;2023-05-24T09:02:33;23.60;93.90
14411;DHT22;7290;50.854;4.354;2023-05-24T09:04:59;24.60;92.50
14411;DHT22;7290;50.854;4.354;2023-05-24T09:07:27;24.30;92.60
14411;DHT22;7290;50.854;4.354;2023-05-24T09:09:57;23.30;93.70
14411;DHT22;7290;50.854;4.354;2023-05-24T09:12:26;23.60;93.00
14411;DHT22;7290;50.854;4.354;2023-05-24T09:14:55;23.80;92.60
14411;DHT22;7290;50.854;4.354;2023-05-24T09:17:22;23.30;93.20
14411;DHT22;7290;50.854;4.354;2023-05-24T09:19:50;22.80;93.60
14411;DHT22;7290;50.854;4.354;2023-05-24T09:22:18;22.80;93.70
14411;DHT22;7290;50.854;4.354;2023-05-24T09:24:49;23.70;93.20
14411;DHT22;7290;50.854;4.354;2023-05-24T09:27:16;24.60;91.70
14411;DHT22;7290;50.854;4.354;2023-05-24T09:29:43;24.40;91.70
14411;DHT22;7290;50.854;4.354;2023-05-24T09:32:11;23.50;92.80
14411;DHT22;7290;50.854;4.354;2023-05-24T09:34:38;23.70;92.70
14411;DHT22;7290;50.854;4.354;2023-05-24T09:37:05;23.40;92.90
14411;DHT22;7290;50.854;4.354;2023-05-24T09:39:32;22.50;93.50
14411;DHT22;7290;50.854;4.354;2023-05-24T09:42:00;22.10;93.70
14411;DHT22;7290;50.854;4.354;2023-05-24T09:44:27;21.80;94.20
14411;DHT22;7290;50.854;4.354;2023-05-24T09:47:01;22.20;94.00
14411;DHT22;7290;50.854;4.354;2023-05-24T09:49:29;22.60;93.60
14411;DHT22;7290;50.854;4.354;2023-05-24T09:51:55;22.70;93.40
14411;DHT22;7290;50.854;4.354;2023-05-24T09:54:23;22.90;93.10
14411;DHT22;7290;50.854;4.354;2023-05-24T09:56:50;23.40;92.90
14411;DHT22;7290;50.854;4.354;2023-05-24T09:59:17;23.60;92.70
14411;DHT22;7290;50.854;4.354;2023-05-24T10:01:44;23.20;92.90
14411;DHT22;7290;50.854;4.354;2023-05-24T10:04:11;23.10;93.20
14411;DHT22;7290;50.854;4.354;2023-05-24T10:06:41;23.20;93.20
14411;DHT22;7290;50.854;4.354;2023-05-24T10:09:07;23.10;93.40
14411;DHT22;7290;50.854;4.354;2023-05-24T10:11:35;23.20;93.00
14411;DHT22;7290;50.854;4.354;2023-05-24T10:14:03;23.60;93.10
14411;DHT22;7290;50.854;4.354;2023-05-24T10:16:30;23.80;92.10
14411;DHT22;7290;50.854;4.354;2023-05-24T10:18:56;23.50;92.50
14411;DHT22;7290;50.854;4.354;2023-05-24T10:21:23;22.70;93.00
14411;DHT22;7290;50.854;4.354;2023-05-24T10:23:53;22.50;93.50
14411;DHT22;7290;50.854;4.354;2023-05-24T10:26:23;23.20;92.80
14411;DHT22;7290;50.854;4.354;2023-05-24T10:28:54;23.10;92.80
14411;DHT22;7290;50.854;4.354;2023-05-24T10:31:24;23.40;92.70
14411;DHT22;7290;50.854;4.354;2023-05-24T10:33:52;23.40;92.50
14411;DHT22;7290;50.854;4.354;2023-05-24T10:36:20;22.10;94.10
14411;DHT22;7290;50.854;4.354;2023-05-24T10:38:47;20.70;95.50
14411;DHT22;7290;50.854;4.354;2023-05-24T10:41:14;21.00;95.50
14411;DHT22;7290;50.854;4.354;2023-05-24T10:43:45;21.20;95.20
14411;DHT22;7290;50.854;4.354;2023-05-24T10:46:14;21.30;95.30
14411;DHT22;7290;50.854;4.354;2023-05-24T10:48:41;21.10;95.50
14411;DHT22;7290;50.854;4.354;2023-05-24T10:51:33;22.30;94.40
14411;DHT22;7290;50.854;4.354;2023-05-24T10:54:21;21.80;94.80
14411;DHT22;7290;50.854;4.354;2023-05-24T10:56:50;22.30;94.40
14411;DHT22;7290;50.854;4.354;2023-05-24T10:59:26;22.70;93.70
14411;DHT22;7290;50.854;4.354;2023-05-24T11:01:57;23.70;92.50
14411;DHT22;7290;50.854;4.354;2023-05-24T11:04:23;24.10;92.10
14411;DHT22;7290;50.854;4.354;2023-05-24T11:06:55;23.80;92.50
14411;DHT22;7290;50.854;4.354;2023-05-24T11:09:22;24.00;92.60
14411;DHT22;7290;50.854;4.354;2023-05-24T11:11:49;23.70;92.40
14411;DHT22;7290;50.854;4.354;2023-05-24T11:14:21;23.00;92.90
14411;DHT22;7290;50.854;4.354;2023-05-24T11:16:48;23.70;91.60
14411;DHT22;7290;50.854;4.354;2023-05-24T11:19:17;25.10;90.50
14411;DHT22;7290;50.854;4.354;2023-05-24T11:21:45;27.00;86.40
14411;DHT22;7290;50.854;4.354;2023-05-24T11:24:12;27.50;84.50
14411;DHT22;7290;50.854;4.354;2023-05-24T11:26:38;27.70;83.50
14411;DHT22;7290;50.854;4.354;2023-05-24T11:29:05;26.20;86.00
14411;DHT22;7290;50.854;4.354;2023-05-24T11:31:31;25.50;87.40
14411;DHT22;7290;50.854;4.354;2023-05-24T11:33:59;24.80;88.40
14411;DHT22;7290;50.854;4.354;2023-05-24T11:36:28;23.70;90.00
14411;DHT22;7290;50.854;4.354;2023-05-24T11:38:55;23.60;89.60
14411;DHT22;7290;50.854;4.354;2023-05-24T11:41:22;22.80;90.30
14411;DHT22;7290;50.854;4.354;2023-05-24T11:43:48;22.80;90.30
14411;DHT22;7290;50.854;4.354;2023-05-24T11:46:14;22.30;90.90
14411;DHT22;7290;50.854;4.354;2023-05-24T11:48:41;22.70;90.90
14411;DHT22;7290;50.854;4.354;2023-05-24T11:51:07;23.60;90.00
14411;DHT22;7290;50.854;4.354;2023-05-24T11:53:33;23.80;88.90
14411;DHT22;7290;50.854;4.354;2023-05-24T11:56:00;22.80;90.40
14411;DHT22;7290;50.854;4.354;2023-05-24T11:58:37;22.50;91.10
14411;DHT22;7290;50.854;4.354;2023-05-24T12:01:24;23.80;90.10
14411;DHT22;7290;50.854;4.354;2023-05-24T12:03:55;24.60;87.40
14411;DHT22;7290;50.854;4.354;2023-05-24T12:06:21;24.10;88.50
14411;DHT22;7290;50.854;4.354;2023-05-24T12:08:48;22.70;90.40
14411;DHT22;7290;50.854;4.354;2023-05-24T12:11:15;22.10;91.50
14411;DHT22;7290;50.854;4.354;2023-05-24T12:13:42;23.30;90.30
14411;DHT22;7290;50.854;4.354;2023-05-24T12:16:10;24.10;89.50
14411;DHT22;7290;50.854;4.354;2023-05-24T12:18:37;23.70;90.20
14411;DHT22;7290;50.854;4.354;2023-05-24T12:21:07;23.70;90.40
14411;DHT22;7290;50.854;4.354;2023-05-24T12:23:34;23.60;90.30
14411;DHT22;7290;50.854;4.354;2023-05-24T12:26:02;23.00;91.10
14411;DHT22;7290;50.854;4.354;2023-05-24T12:28:32;22.40;91.90
14411;DHT22;7290;50.854;4.354;2023-05-24T12:31:01;22.60;91.50
14411;DHT22;7290;50.854;4.354;2023-05-24T12:33:28;22.20;91.90
14411;DHT22;7290;50.854;4.354;2023-05-24T12:35:54;21.80;92.40
14411;DHT22;7290;50.854;4.354;2023-05-24T12:38:23;22.20;92.00
14411;DHT22;7290;50.854;4.354;2023-05-24T12:40:50;22.40;91.90
14411;DHT22;7290;50.854;4.354;2023-05-24T12:43:21;22.40;91.70
14411;DHT22;7290;50.854;4.354;2023-05-24T12:45:47;22.70;91.60
14411;DHT22;7290;50.854;4.354;2023-05-24T12:48:14;22.50;91.60
14411;DHT22;7290;50.854;4.354;2023-05-24T12:50:40;22.40;91.90
14411;DHT22;7290;50.854;4.354;2023-05-24T12:53:06;21.40;92.90
14411;DHT22;7290;50.854;4.354;2023-05-24T12:55:33;21.40;93.00
14411;DHT22;7290;50.854;4.354;2023-05-24T12:57:59;21.60;93.30
14411;DHT22;7290;50.854;4.354;2023-05-24T13:00:27;21.20;93.80
14411;DHT22;7290;50.854;4.354;2023-05-24T13:02:55;21.40;93.70
14411;DHT22;7290;50.854;4.354;2023-05-24T13:05:25;21.50;93.50
14411;DHT22;7290;50.854;4.354;2023-05-24T13:07:52;21.40;93.70
14411;DHT22;7290;50.854;4.354;2023-05-24T13:10:19;21.30;93.60
14411;DHT22;7290;50.854;4.354;2023-05-24T13:12:45;20.60;94.10
14411;DHT22;7290;50.854;4.354;2023-05-24T13:15:11;21.00;93.80
14411;DHT22;7290;50.854;4.354;2023-05-24T13:17:38;20.80;93.80
14411;DHT22;7290;50.854;4.354;2023-05-24T13:20:06;20.60;93.90
14411;DHT22;7290;50.854;4.354;2023-05-24T13:22:33;20.80;93.70
14411;DHT22;7290;50.854;4.354;2023-05-24T13:24:59;20.80;93.60
14411;DHT22;7290;50.854;4.354;2023-05-24T13:27:25;20.50;94.00
14411;DHT22;7290;50.854;4.354;2023-05-24T13:29:52;20.40;94.00
14411;DHT22;7290;50.854;4.354;2023-05-24T13:32:18;20.30;94.30
14411;DHT22;7290;50.854;4.354;2023-05-24T13:34:44;21.00;93.60
14411;DHT22;7290;50.854;4.354;2023-05-24T13:37:10;21.40;93.20
14411;DHT22;7290;50.854;4.354;2023-05-24T13:39:37;21.20;93.20
14411;DHT22;7290;50.854;4.354;2023-05-24T13:42:04;21.00;93.50
14411;DHT22;7290;50.854;4.354;2023-05-24T13:44:31;21.00;93.80
14411;DHT22;7290;50.854;4.354;2023-05-24T13:46:57;20.30;94.10
14411;DHT22;7290;50.854;4.354;2023-05-24T13:49:23;19.80;94.90
14411;DHT22;7290;50.854;4.354;2023-05-24T13:51:50;19.70;95.00
14411;DHT22;7290;50.854;4.354;2023-05-24T13:54:17;19.80;94.90
14411;DHT22;7290;50.854;4.354;2023-05-24T13:56:46;19.50;95.40
14411;DHT22;7290;50.854;4.354;2023-05-24T13:59:14;19.30;95.90
14411;DHT22;7290;50.854;4.354;2023-05-24T14:01:41;19.50;95.80
14411;DHT22;7290;50.854;4.354;2023-05-24T14:04:08;19.70;95.80
14411;DHT22;7290;50.854;4.354;2023-05-24T14:06:34;19.70;95.60
14411;DHT22;7290;50.854;4.354;2023-05-24T14:09:06;19.60;96.10
14411;DHT22;7290;50.854;4.354;2023-05-24T14:11:40;19.80;95.80
14411;DHT22;7290;50.854;4.354;2023-05-24T14:14:17;19.70;95.90
14411;DHT22;7290;50.854;4.354;2023-05-24T14:16:43;19.60;96.00
14411;DHT22;7290;50.854;4.354;2023-05-24T14:19:09;19.70;96.20
14411;DHT22;7290;50.854;4.354;2023-05-24T14:21:35;20.00;95.90
14411;DHT22;7290;50.854;4.354;2023-05-24T14:24:02;20.10;95.80
14411;DHT22;7290;50.854;4.354;2023-05-24T14:26:30;20.40;95.80
14411;DHT22;7290;50.854;4.354;2023-05-24T14:28:56;20.70;95.30
14411;DHT22;7290;50.854;4.354;2023-05-24T14:31:23;20.80;95.30
14411;DHT22;7290;50.854;4.354;2023-05-24T14:33:49;20.70;95.20
14411;DHT22;7290;50.854;4.354;2023-05-24T14:36:16;20.60;95.40
14411;DHT22;7290;50.854;4.354;2023-05-24T14:38:43;20.10;95.90
14411;DHT22;7290;50.854;4.354;2023-05-24T14:41:09;20.20;96.20
14411;DHT22;7290;50.854;4.354;2023-05-24T14:43:35;20.10;96.00
14411;DHT22;7290;50.854;4.354;2023-05-24T14:46:02;20.00;96.40
14411;DHT22;7290;50.854;4.354;2023-05-24T14:48:29;19.90;96.60
14411;DHT22;7290;50.854;4.354;2023-05-24T14:50:55;20.20;96.20
14411;DHT22;7290;50.854;4.354;2023-05-24T14:53:21;20.20;96.20
14411;DHT22;7290;50.854;4.354;2023-05-24T14:55:47;19.90;96.70
14411;DHT22;7290;50.854;4.354;2023-05-24T14:58:14;19.90;96.80
14411;DHT22;7290;50.854;4.354;2023-05-24T15:00:41;19.90;96.80
14411;DHT22;7290;50.854;4.354;2023-05-24T15:03:08;20.00;96.40
14411;DHT22;7290;50.854;4.354;2023-05-24T15:05:36;19.80;96.50
14411;DHT22;7290;50.854;4.354;2023-05-24T15:08:02;19.80;96.60
14411;DHT22;7290;50.854;4.354;2023-05-24T15:10:29;19.90;96.80
14411;DHT22;7290;50.854;4.354;2023-05-24T15:12:56;20.00;96.60
14411;DHT22;7290;50.854;4.354;2023-05-24T15:15:22;20.10;96.50
14411;DHT22;7290;50.854;4.354;2023-05-24T15:17:53;20.20;96.60
14411;DHT22;7290;50.854;4.354;2023-05-24T15:20:28;20.40;96.40
14411;DHT22;7290;50.854;4.354;2023-05-24T15:22:55;20.30;96.50
14411;DHT22;7290;50.854;4.354;2023-05-24T15:25:21;20.00;96.80
14411;DHT22;7290;50.854;4.354;2023-05-24T15:27:49;20.00;97.00
14411;DHT22;7290;50.854;4.354;2023-05-24T15:30:17;20.10;96.70
14411;DHT22;7290;50.854;4.354;2023-05-24T15:32:43;20.20;96.50
14411;DHT22;7290;50.854;4.354;2023-05-24T15:35:10;20.50;96.00
14411;DHT22;7290;50.854;4.354;2023-05-24T15:37:37;20.30;96.30
14411;DHT22;7290;50.854;4.354;2023-05-24T15:40:05;20.20;96.50
14411;DHT22;7290;50.854;4.354;2023-05-24T15:42:32;20.00;96.80
14411;DHT22;7290;50.854;4.354;2023-05-24T15:44:58;20.30;96.50
14411;DHT22;7290;50.854;4.354;2023-05-24T15:47:24;20.20;96.60